createdAt,value
2022-09-18T00:00:20.014Z,21.06
2022-09-18T00:01:20.019Z,21.06
2022-09-18T00:02:20.078Z,21.07
2022-09-18T00:03:20.168Z,21.04
2022-09-18T00:04:19.999Z,21.06
2022-09-18T00:05:19.963Z,21.06
2022-09-18T00:06:19.949Z,21.06
2022-09-18T00:07:19.941Z,21.06
2022-09-18T00:08:19.927Z,21.06
2022-09-18T00:09:19.946Z,21.06
2022-09-18T00:10:19.908Z,21.06
2022-09-18T00:11:19.896Z,21.06
2022-09-18T00:12:19.884Z,21.04
2022-09-18T00:13:19.876Z,21.04
2022-09-18T00:14:19.890Z,21.04
2022-09-18T00:15:19.854Z,21.06
2022-09-18T00:16:19.984Z,21.04
2022-09-18T00:17:19.831Z,21.06
2022-09-18T00:18:19.821Z,21.06
2022-09-18T00:19:19.962Z,21.04
2022-09-18T00:20:19.800Z,21.06
2022-09-18T00:21:19.791Z,21.04
2022-09-18T00:22:19.779Z,21.06
2022-09-18T00:23:19.766Z,21.04
2022-09-18T00:24:19.797Z,21.03
2022-09-18T00:25:19.757Z,21.06
2022-09-18T00:26:19.753Z,21.04
2022-09-18T00:27:19.723Z,21.04
2022-09-18T00:28:19.723Z,21.04
2022-09-18T00:29:19.732Z,21.04
2022-09-18T00:30:19.690Z,21.04
2022-09-18T00:31:19.738Z,21.04
2022-09-18T00:32:19.671Z,21.03
2022-09-18T00:33:19.658Z,21.04
2022-09-18T00:34:19.679Z,21.03
2022-09-18T00:35:19.758Z,21.04
2022-09-18T00:36:19.628Z,21.04
2022-09-18T00:37:19.615Z,21.03
2022-09-18T00:38:19.607Z,21.04
2022-09-18T00:39:19.624Z,21.04
2022-09-18T00:40:19.690Z,21.04
2022-09-18T00:41:19.572Z,21.04
2022-09-18T00:42:19.563Z,21.03
2022-09-18T00:43:19.551Z,21.03
2022-09-18T00:44:19.590Z,21.03
2022-09-18T00:45:19.530Z,21.03
2022-09-18T00:46:19.578Z,21.03
2022-09-18T00:47:19.507Z,21.03
2022-09-18T00:48:19.497Z,21.04
2022-09-18T00:49:19.486Z,21.04
2022-09-18T00:50:19.504Z,21.03
2022-09-18T00:51:19.587Z,21.03
2022-09-18T00:52:19.475Z,21.04
2022-09-18T00:53:19.449Z,21.04
2022-09-18T00:54:19.440Z,21.03
2022-09-18T00:55:19.453Z,21.03
2022-09-18T00:56:19.419Z,21.01
2022-09-18T00:57:19.400Z,21.03
2022-09-18T00:58:19.391Z,21.03
2022-09-18T00:59:19.378Z,21.03
2022-09-18T01:00:19.404Z,21.03
2022-09-18T01:01:19.433Z,21.03
2022-09-18T01:02:19.420Z,21.03
2022-09-18T01:03:19.335Z,21.03
2022-09-18T01:04:19.324Z,21.03
2022-09-18T01:05:19.340Z,21.04
2022-09-18T01:06:19.304Z,21.03
2022-09-18T01:07:19.414Z,21.03
2022-09-18T01:08:19.282Z,21.03
2022-09-18T01:09:28.259Z,21.03
2022-09-18T01:10:20.288Z,21.03
2022-09-18T01:11:19.247Z,21.03
2022-09-18T01:12:19.241Z,21.03
2022-09-18T01:13:19.226Z,21.03
2022-09-18T01:14:19.214Z,21.04
2022-09-18T01:15:19.234Z,21.04
2022-09-18T01:16:19.277Z,21.01
2022-09-18T01:17:19.185Z,21.01
2022-09-18T01:18:19.173Z,21.03
2022-09-18T01:19:19.164Z,21.01
2022-09-18T01:20:19.151Z,21.04
2022-09-18T01:21:19.170Z,21.03
2022-09-18T01:22:19.155Z,21.01
2022-09-18T01:23:19.244Z,21.03
2022-09-18T01:24:19.108Z,21.03
2022-09-18T01:25:19.096Z,21.01
2022-09-18T01:26:19.083Z,21.01
2022-09-18T01:27:19.102Z,21.01
2022-09-18T01:28:19.062Z,21.01
2022-09-18T01:29:19.063Z,21.01
2022-09-18T01:30:19.040Z,21.03
2022-09-18T01:31:19.073Z,21.01
2022-09-18T01:32:19.049Z,21.03
2022-09-18T01:33:19.035Z,21.03
2022-09-18T01:34:18.997Z,21.03
2022-09-18T01:35:40.101Z,21.03
2022-09-18T01:36:19.974Z,21.01
2022-09-18T01:37:18.968Z,21.03
2022-09-18T01:38:18.981Z,21.03
2022-09-18T01:39:19.067Z,21.01
2022-09-18T01:40:19.030Z,21.01
2022-09-18T01:41:18.926Z,21.01
2022-09-18T01:42:18.910Z,21.03
2022-09-18T01:43:18.944Z,21.03
2022-09-18T01:44:18.889Z,21.03
2022-09-18T01:45:18.878Z,20.99
2022-09-18T01:46:18.906Z,21.01
2022-09-18T01:47:18.857Z,21.01
2022-09-18T01:48:18.877Z,21.01
2022-09-18T01:49:18.866Z,20.99
2022-09-18T01:50:18.825Z,21.03
2022-09-18T01:51:18.815Z,20.99
2022-09-18T01:52:18.802Z,21.01
2022-09-18T01:53:18.792Z,20.99
2022-09-18T01:54:18.810Z,21.01
2022-09-18T01:55:18.890Z,21.03
2022-09-18T01:56:18.759Z,21.01
2022-09-18T01:57:18.749Z,21.01
2022-09-18T01:58:18.738Z,21.01
2022-09-18T01:59:18.756Z,20.99
2022-09-18T02:00:18.717Z,21.01
2022-09-18T02:01:18.726Z,21.01
2022-09-18T02:02:18.823Z,21.01
2022-09-18T02:03:18.687Z,21.03
2022-09-18T02:04:18.700Z,21.01
2022-09-18T02:05:18.664Z,21.01
2022-09-18T02:06:18.650Z,21.01
2022-09-18T02:07:18.642Z,21.01
2022-09-18T02:08:18.630Z,21.01
2022-09-18T02:09:18.650Z,20.99
2022-09-18T02:10:18.634Z,20.99
2022-09-18T02:11:18.719Z,21.01
2022-09-18T02:12:18.585Z,21.01
2022-09-18T02:13:18.577Z,21.01
2022-09-18T02:14:18.565Z,20.99
2022-09-18T02:15:18.582Z,20.99
2022-09-18T02:16:18.695Z,21.01
2022-09-18T02:17:18.535Z,21.01
2022-09-18T02:18:18.522Z,21.01
2022-09-18T02:19:18.520Z,20.99
2022-09-18T02:20:18.528Z,20.99
2022-09-18T02:21:18.493Z,20.99
2022-09-18T02:22:18.478Z,21.01
2022-09-18T02:23:18.468Z,20.99
2022-09-18T02:24:18.457Z,21.01
2022-09-18T02:25:18.476Z,21.01
2022-09-18T02:26:18.434Z,20.99
2022-09-18T02:27:18.551Z,21.01
2022-09-18T02:28:18.413Z,20.99
2022-09-18T02:29:18.402Z,20.98
2022-09-18T02:30:18.419Z,20.99
2022-09-18T02:31:18.480Z,20.99
2022-09-18T02:32:18.370Z,20.99
2022-09-18T02:33:18.364Z,21.01
2022-09-18T02:34:18.351Z,21.01
2022-09-18T02:35:18.338Z,20.99
2022-09-18T02:36:18.355Z,20.98
2022-09-18T02:37:18.319Z,20.99
2022-09-18T02:38:18.306Z,20.99
2022-09-18T02:39:18.297Z,20.98
2022-09-18T02:40:18.323Z,20.99
2022-09-18T02:41:18.303Z,20.98
2022-09-18T02:42:18.262Z,20.98
2022-09-18T02:43:18.374Z,20.99
2022-09-18T02:44:18.241Z,20.98
2022-09-18T02:45:18.232Z,20.99
2022-09-18T02:46:18.306Z,20.98
2022-09-18T02:47:18.236Z,20.99
2022-09-18T02:48:18.197Z,20.98
2022-09-18T02:49:18.187Z,20.99
2022-09-18T02:50:18.176Z,20.99
2022-09-18T02:51:18.166Z,20.98
2022-09-18T02:52:18.154Z,20.98
2022-09-18T02:53:18.174Z,20.98
2022-09-18T02:54:18.132Z,20.98
2022-09-18T02:55:18.124Z,20.99
2022-09-18T02:56:18.111Z,20.99
2022-09-18T02:57:18.100Z,20.99
2022-09-18T02:58:18.118Z,20.98
2022-09-18T02:59:18.200Z,20.98
2022-09-18T03:00:18.069Z,20.98
2022-09-18T03:01:18.209Z,20.98
2022-09-18T03:02:18.261Z,20.98
2022-09-18T03:03:18.066Z,20.98
2022-09-18T03:04:18.025Z,20.98
2022-09-18T03:05:18.014Z,20.98
2022-09-18T03:06:18.003Z,20.98
2022-09-18T03:07:17.993Z,20.98
2022-09-18T03:08:18.033Z,20.98
2022-09-18T03:09:17.973Z,20.98
2022-09-18T03:10:17.960Z,20.98
2022-09-18T03:11:17.967Z,20.97
2022-09-18T03:12:17.939Z,20.98
2022-09-18T03:13:17.930Z,20.98
2022-09-18T03:14:17.947Z,20.98
2022-09-18T03:15:18.025Z,20.99
2022-09-18T03:16:18.034Z,20.98
2022-09-18T03:17:17.885Z,20.98
2022-09-18T03:18:17.874Z,20.97
2022-09-18T03:19:17.898Z,20.98
2022-09-18T03:20:17.853Z,20.98
2022-09-18T03:21:17.843Z,20.97
2022-09-18T03:22:17.834Z,20.97
2022-09-18T03:23:17.821Z,20.98
2022-09-18T03:24:17.840Z,20.97
2022-09-18T03:25:17.801Z,20.98
2022-09-18T03:26:17.788Z,20.97
2022-09-18T03:27:17.777Z,20.97
2022-09-18T03:28:17.767Z,20.97
2022-09-18T03:29:17.790Z,20.98
2022-09-18T03:30:17.747Z,20.97
2022-09-18T03:31:17.904Z,20.97
2022-09-18T03:32:17.725Z,20.97
2022-09-18T03:33:17.718Z,20.97
2022-09-18T03:34:17.733Z,20.97
2022-09-18T03:35:17.692Z,20.98
2022-09-18T03:36:17.680Z,20.97
2022-09-18T03:37:17.670Z,20.98
2022-09-18T03:38:17.659Z,20.98
2022-09-18T03:39:17.676Z,20.98
2022-09-18T03:40:17.673Z,20.97
2022-09-18T03:41:17.632Z,20.97
2022-09-18T03:42:17.617Z,20.98
2022-09-18T03:43:17.608Z,20.97
2022-09-18T03:44:17.624Z,20.98
2022-09-18T03:45:17.584Z,20.98
2022-09-18T03:46:17.601Z,20.97
2022-09-18T03:47:17.686Z,20.97
2022-09-18T03:48:17.552Z,20.98
2022-09-18T03:49:17.592Z,20.98
2022-09-18T03:50:17.531Z,20.98
2022-09-18T03:51:17.520Z,20.98
2022-09-18T03:52:17.508Z,20.97
2022-09-18T03:53:17.500Z,20.97
2022-09-18T03:54:17.489Z,20.97
2022-09-18T03:55:17.505Z,20.97
2022-09-18T03:56:17.469Z,20.97
2022-09-18T03:57:17.453Z,20.97
2022-09-18T03:58:17.443Z,20.95
2022-09-18T03:59:17.432Z,20.97
2022-09-18T04:00:17.450Z,20.95
2022-09-18T04:01:17.410Z,20.97
2022-09-18T04:02:17.494Z,20.95
2022-09-18T04:03:17.547Z,20.97
2022-09-18T04:04:17.378Z,20.97
2022-09-18T04:05:17.395Z,20.95
2022-09-18T04:06:17.357Z,20.97
2022-09-18T04:07:17.346Z,20.95
2022-09-18T04:08:17.339Z,20.95
2022-09-18T04:09:17.326Z,20.97
2022-09-18T04:10:17.344Z,20.95
2022-09-18T04:11:17.331Z,20.97
2022-09-18T04:12:17.321Z,20.95
2022-09-18T04:13:17.280Z,20.95
2022-09-18T04:14:17.270Z,20.97
2022-09-18T04:15:17.260Z,20.97
2022-09-18T04:16:17.343Z,20.95
2022-09-18T04:17:17.238Z,20.95
2022-09-18T04:18:17.226Z,20.95
2022-09-18T04:19:17.338Z,20.95
2022-09-18T04:20:17.207Z,20.95
2022-09-18T04:21:17.221Z,20.95
2022-09-18T04:22:17.185Z,20.95
2022-09-18T04:23:17.170Z,20.94
2022-09-18T04:24:17.161Z,20.95
2022-09-18T04:25:17.150Z,20.95
2022-09-18T04:26:17.140Z,20.95
2022-09-18T04:27:17.157Z,20.95
2022-09-18T04:28:17.121Z,20.94
2022-09-18T04:29:17.107Z,20.95
2022-09-18T04:30:17.096Z,20.95
2022-09-18T04:31:17.095Z,20.95
2022-09-18T04:32:17.102Z,20.97
2022-09-18T04:33:17.063Z,20.95
2022-09-18T04:34:17.055Z,20.95
2022-09-18T04:35:17.173Z,20.95
2022-09-18T04:36:17.032Z,20.94
2022-09-18T04:37:17.049Z,20.95
2022-09-18T04:38:17.011Z,20.95
2022-09-18T04:39:16.998Z,20.94
2022-09-18T04:40:17.026Z,20.95
2022-09-18T04:41:16.980Z,20.94
2022-09-18T04:42:16.997Z,20.94
2022-09-18T04:43:16.954Z,20.95
2022-09-18T04:44:16.944Z,20.94
2022-09-18T04:45:16.933Z,20.95
2022-09-18T04:46:17.009Z,20.95
2022-09-18T04:47:16.942Z,20.94
2022-09-18T04:48:16.902Z,20.92
2022-09-18T04:49:16.890Z,20.94
2022-09-18T04:50:16.883Z,20.94
2022-09-18T04:51:17.021Z,20.94
2022-09-18T04:52:16.889Z,20.94
2022-09-18T04:53:16.849Z,20.95
2022-09-18T04:54:16.835Z,20.94
2022-09-18T04:55:16.825Z,20.95
2022-09-18T04:56:16.818Z,20.95
2022-09-18T04:57:16.831Z,20.94
2022-09-18T04:58:16.794Z,20.94
2022-09-18T04:59:16.781Z,20.92
2022-09-18T05:00:16.773Z,20.94
2022-09-18T05:01:16.850Z,20.94
2022-09-18T05:02:16.863Z,20.94
2022-09-18T05:03:16.738Z,20.94
2022-09-18T05:04:16.727Z,20.94
2022-09-18T05:05:16.715Z,20.94
2022-09-18T05:06:16.706Z,20.95
2022-09-18T05:07:16.841Z,20.92
2022-09-18T05:08:16.689Z,20.94
2022-09-18T05:09:16.672Z,20.94
2022-09-18T05:10:16.666Z,20.94
2022-09-18T05:11:16.651Z,20.94
2022-09-18T05:12:16.671Z,20.92
2022-09-18T05:13:16.629Z,20.92
2022-09-18T05:14:16.621Z,20.92
2022-09-18T05:15:16.608Z,20.92
2022-09-18T05:16:16.671Z,20.92
2022-09-18T05:17:16.613Z,20.94
2022-09-18T05:18:16.604Z,20.92
2022-09-18T05:19:16.563Z,20.94
2022-09-18T05:20:16.556Z,20.92
2022-09-18T05:21:16.542Z,20.92
2022-09-18T05:22:16.531Z,20.94
2022-09-18T05:23:16.664Z,20.94
2022-09-18T05:24:16.512Z,20.92
2022-09-18T05:25:16.498Z,20.92
2022-09-18T05:26:16.487Z,20.92
2022-09-18T05:27:16.477Z,20.94
2022-09-18T05:28:16.494Z,20.92
2022-09-18T05:29:16.463Z,20.91
2022-09-18T05:30:16.448Z,20.92
2022-09-18T05:31:16.518Z,20.92
2022-09-18T05:32:16.429Z,20.92
2022-09-18T05:33:16.443Z,20.92
2022-09-18T05:34:16.404Z,20.92
2022-09-18T05:35:16.396Z,20.92
2022-09-18T05:36:16.379Z,20.92
2022-09-18T05:37:16.367Z,20.92
2022-09-18T05:38:16.384Z,20.91
2022-09-18T05:39:17.774Z,20.91
2022-09-18T05:40:16.428Z,20.92
2022-09-18T05:41:16.323Z,20.92
2022-09-18T05:42:16.317Z,20.92
2022-09-18T05:43:16.301Z,20.92
2022-09-18T05:44:16.324Z,20.92
2022-09-18T05:45:16.280Z,20.92
2022-09-18T05:46:16.340Z,20.94
2022-09-18T05:47:16.260Z,20.92
2022-09-18T05:48:16.247Z,20.91
2022-09-18T05:49:16.265Z,20.92
2022-09-18T05:50:16.227Z,20.92
2022-09-18T05:51:16.215Z,20.91
2022-09-18T05:52:16.206Z,20.92
2022-09-18T05:53:16.193Z,20.92
2022-09-18T05:54:16.211Z,20.91
2022-09-18T05:55:16.295Z,20.92
2022-09-18T05:56:16.163Z,20.91
2022-09-18T05:57:16.150Z,20.91
2022-09-18T05:58:16.140Z,20.91
2022-09-18T05:59:16.158Z,20.91
2022-09-18T06:00:16.118Z,20.92
2022-09-18T06:01:16.108Z,20.91
2022-09-18T06:02:16.153Z,20.91
2022-09-18T06:03:16.186Z,20.92
2022-09-18T06:04:16.105Z,20.92
2022-09-18T06:05:16.063Z,20.91
2022-09-18T06:06:16.052Z,20.91
2022-09-18T06:07:16.044Z,20.91
2022-09-18T06:08:16.034Z,20.91
2022-09-18T06:09:16.069Z,20.91
2022-09-18T06:10:16.009Z,20.91
2022-09-18T06:11:16.132Z,20.91
2022-09-18T06:12:15.990Z,20.89
2022-09-18T06:13:15.993Z,20.91
2022-09-18T06:14:15.977Z,20.91
2022-09-18T06:15:15.990Z,20.91
2022-09-18T06:16:15.984Z,20.91
2022-09-18T06:17:15.932Z,20.92
2022-09-18T06:18:15.924Z,20.91
2022-09-18T06:19:15.913Z,20.91
2022-09-18T06:20:15.935Z,20.89
2022-09-18T06:21:15.890Z,20.91
2022-09-18T06:22:15.881Z,20.91
2022-09-18T06:23:15.868Z,20.91
2022-09-18T06:24:15.857Z,20.91
2022-09-18T06:25:15.877Z,20.91
2022-09-18T06:26:15.840Z,20.91
2022-09-18T06:27:15.949Z,20.91
2022-09-18T06:28:15.814Z,20.89
2022-09-18T06:29:15.802Z,20.91
2022-09-18T06:30:15.823Z,20.91
2022-09-18T06:31:15.797Z,20.91
2022-09-18T06:32:15.773Z,20.91
2022-09-18T06:33:15.759Z,20.89
2022-09-18T06:34:15.750Z,20.91
2022-09-18T06:35:15.767Z,20.91
2022-09-18T06:36:15.729Z,20.89
2022-09-18T06:37:15.717Z,20.92
2022-09-18T06:38:15.707Z,20.89
2022-09-18T06:39:15.694Z,20.89
2022-09-18T06:40:15.812Z,20.91
2022-09-18T06:41:15.673Z,20.91
2022-09-18T06:42:15.665Z,20.91
2022-09-18T06:43:15.787Z,20.91
2022-09-18T06:44:15.642Z,20.89
2022-09-18T06:45:15.657Z,20.91
2022-09-18T06:46:15.673Z,20.88
2022-09-18T06:47:15.607Z,20.91
2022-09-18T06:48:15.601Z,20.91
2022-09-18T06:49:15.592Z,20.89
2022-09-18T06:50:15.575Z,20.91
2022-09-18T06:51:15.593Z,20.89
2022-09-18T06:52:15.555Z,20.89
2022-09-18T06:53:15.543Z,20.91
2022-09-18T06:54:15.535Z,20.91
2022-09-18T06:55:15.520Z,20.89
2022-09-18T06:56:15.537Z,20.91
2022-09-18T06:57:15.525Z,20.89
2022-09-18T06:58:15.498Z,20.89
2022-09-18T06:59:15.596Z,20.89
2022-09-18T07:00:15.467Z,20.89
2022-09-18T07:01:15.601Z,20.89
2022-09-18T07:02:19.383Z,20.89
2022-09-18T07:03:15.436Z,20.89
2022-09-18T07:04:15.427Z,20.91
2022-09-18T07:05:15.414Z,20.89
2022-09-18T07:06:15.406Z,20.88
2022-09-18T07:07:15.422Z,20.89
2022-09-18T07:08:15.383Z,20.91
2022-09-18T07:09:15.369Z,20.89
2022-09-18T07:10:15.360Z,20.91
2022-09-18T07:11:15.353Z,20.89
2022-09-18T07:12:15.369Z,20.89
2022-09-18T07:13:15.330Z,20.88
2022-09-18T07:14:15.314Z,20.89
2022-09-18T07:15:15.421Z,20.89
2022-09-18T07:16:15.448Z,20.89
2022-09-18T07:17:18.277Z,20.89
2022-09-18T07:18:15.273Z,20.89
2022-09-18T07:19:15.263Z,20.91
2022-09-18T07:20:15.249Z,20.89
2022-09-18T07:21:15.241Z,20.91
2022-09-18T07:22:15.259Z,20.89
2022-09-18T07:23:15.246Z,20.91
2022-09-18T07:24:15.206Z,20.91
2022-09-18T07:25:15.199Z,20.89
2022-09-18T07:26:15.185Z,20.89
2022-09-18T07:27:15.175Z,20.88
2022-09-18T07:28:15.190Z,20.89
2022-09-18T07:29:15.154Z,20.89
2022-09-18T07:30:15.140Z,20.89
2022-09-18T07:31:15.311Z,20.89
2022-09-18T07:32:15.119Z,20.89
2022-09-18T07:33:15.140Z,20.91
2022-09-18T07:34:15.097Z,20.89
2022-09-18T07:35:15.087Z,20.89
2022-09-18T07:36:15.076Z,20.89
2022-09-18T07:37:15.068Z,20.89
2022-09-18T07:38:15.083Z,20.91
2022-09-18T07:39:15.044Z,20.89
2022-09-18T07:40:15.124Z,20.89
2022-09-18T07:41:15.023Z,20.88
2022-09-18T07:42:15.013Z,20.89
2022-09-18T07:43:15.054Z,20.91
2022-09-18T07:44:14.988Z,20.89
2022-09-18T07:45:14.977Z,20.89
2022-09-18T07:46:15.036Z,20.88
2022-09-18T07:47:15.082Z,20.89
2022-09-18T07:48:14.943Z,20.88
2022-09-18T07:49:14.965Z,20.88
2022-09-18T07:50:14.924Z,20.89
2022-09-18T07:51:14.912Z,20.87
2022-09-18T07:52:14.906Z,20.89
2022-09-18T07:53:14.892Z,20.89
2022-09-18T07:54:14.910Z,20.89
2022-09-18T07:55:14.872Z,20.89
2022-09-18T07:56:14.857Z,20.89
2022-09-18T07:57:14.849Z,20.88
2022-09-18T07:58:14.840Z,20.89
2022-09-18T07:59:14.861Z,20.89
2022-09-18T08:00:14.818Z,20.88
2022-09-18T08:01:14.807Z,20.89
2022-09-18T08:02:14.967Z,20.88
2022-09-18T08:03:14.917Z,20.89
2022-09-18T08:04:14.800Z,20.88
2022-09-18T08:05:14.788Z,20.88
2022-09-18T08:06:14.748Z,20.89
2022-09-18T08:07:14.738Z,20.89
2022-09-18T08:08:14.729Z,20.89
2022-09-18T08:09:14.716Z,20.88
2022-09-18T08:10:14.736Z,20.89
2022-09-18T08:11:14.695Z,20.88
2022-09-18T08:12:14.686Z,20.89
2022-09-18T08:13:14.672Z,20.89
2022-09-18T08:14:14.665Z,20.89
2022-09-18T08:15:14.681Z,20.88
2022-09-18T08:16:14.776Z,20.88
2022-09-18T08:17:14.629Z,20.89
2022-09-18T08:18:14.621Z,20.88
2022-09-18T08:19:14.725Z,20.88
2022-09-18T08:20:14.627Z,20.88
2022-09-18T08:21:14.615Z,20.88
2022-09-18T08:22:14.575Z,20.88
2022-09-18T08:23:14.563Z,20.88
2022-09-18T08:24:14.558Z,20.88
2022-09-18T08:25:14.542Z,20.88
2022-09-18T08:26:17.669Z,20.88
2022-09-18T08:27:15.547Z,20.88
2022-09-18T08:28:14.511Z,20.88
2022-09-18T08:29:14.499Z,20.88
2022-09-18T08:30:14.489Z,20.88
2022-09-18T08:31:14.554Z,20.88
2022-09-18T08:32:14.497Z,20.88
2022-09-18T08:33:14.455Z,20.89
2022-09-18T08:34:14.448Z,20.88
2022-09-18T08:35:14.556Z,20.88
2022-09-18T08:36:14.424Z,20.88
2022-09-18T08:37:14.445Z,20.88
2022-09-18T08:38:14.402Z,20.88
2022-09-18T08:39:14.388Z,20.88
2022-09-18T08:40:14.424Z,20.88
2022-09-18T08:41:14.367Z,20.88
2022-09-18T08:42:14.386Z,20.88
2022-09-18T08:43:14.374Z,20.88
2022-09-18T08:44:14.337Z,20.88
2022-09-18T08:45:14.325Z,20.88
2022-09-18T08:46:14.402Z,20.87
2022-09-18T08:47:14.301Z,20.88
2022-09-18T08:48:14.342Z,20.88
2022-09-18T08:49:14.281Z,20.88
2022-09-18T08:50:14.272Z,20.88
2022-09-18T08:51:14.387Z,20.88
2022-09-18T08:52:14.248Z,20.88
2022-09-18T08:53:14.238Z,20.89
2022-09-18T08:54:14.258Z,20.88
2022-09-18T08:55:14.215Z,20.89
2022-09-18T08:56:14.206Z,20.88
2022-09-18T08:57:15.613Z,20.88
2022-09-18T08:58:14.186Z,20.88
2022-09-18T08:59:14.201Z,20.87
2022-09-18T09:00:14.163Z,20.87
2022-09-18T09:01:14.188Z,20.88
2022-09-18T09:02:14.195Z,20.87
2022-09-18T09:03:14.127Z,20.88
2022-09-18T09:04:14.150Z,20.87
2022-09-18T09:05:14.136Z,20.88
2022-09-18T09:06:14.098Z,20.88
2022-09-18T09:07:14.207Z,20.87
2022-09-18T09:08:14.075Z,20.87
2022-09-18T09:09:17.968Z,20.88
2022-09-18T09:10:15.079Z,20.87
2022-09-18T09:11:14.041Z,20.88
2022-09-18T09:12:14.030Z,20.88
2022-09-18T09:13:14.019Z,20.87
2022-09-18T09:14:14.018Z,20.88
2022-09-18T09:15:17.146Z,20.87
2022-09-18T09:16:15.064Z,20.87
2022-09-18T09:17:13.976Z,20.88
2022-09-18T09:18:13.967Z,20.88
2022-09-18T09:19:13.955Z,20.87
2022-09-18T09:20:13.943Z,20.88
2022-09-18T09:21:13.961Z,20.88
2022-09-18T09:22:13.966Z,20.87
2022-09-18T09:23:14.027Z,20.87
2022-09-18T09:24:13.899Z,20.88
2022-09-18T09:25:13.890Z,20.87
2022-09-18T09:26:13.877Z,20.88
2022-09-18T09:27:13.897Z,20.85
2022-09-18T09:28:16.547Z,20.88
2022-09-18T09:29:13.844Z,20.87
2022-09-18T09:30:13.837Z,20.87
2022-09-18T09:31:13.867Z,20.87
2022-09-18T09:32:13.842Z,20.88
2022-09-18T09:33:13.845Z,20.88
2022-09-18T09:34:13.798Z,20.87
2022-09-18T09:35:13.779Z,20.85
2022-09-18T09:36:13.772Z,20.85
2022-09-18T09:37:13.757Z,20.85
2022-09-18T09:38:13.776Z,20.87
2022-09-18T09:39:13.864Z,20.85
2022-09-18T09:40:13.774Z,20.87
2022-09-18T09:41:13.717Z,20.87
2022-09-18T09:42:13.703Z,20.87
2022-09-18T09:43:13.730Z,20.87
2022-09-18T09:44:13.682Z,20.87
2022-09-18T09:45:13.670Z,20.85
2022-09-18T09:46:16.048Z,20.87
2022-09-18T09:47:14.787Z,20.87
2022-09-18T09:48:13.671Z,20.85
2022-09-18T09:49:13.660Z,20.87
2022-09-18T09:50:13.616Z,20.87
2022-09-18T09:51:13.606Z,20.87
2022-09-18T09:52:13.596Z,20.85
2022-09-18T09:53:13.607Z,20.87
2022-09-18T09:54:13.604Z,20.85
2022-09-18T09:55:13.728Z,20.85
2022-09-18T09:56:13.551Z,20.87
2022-09-18T09:57:13.540Z,20.85
2022-09-18T09:58:13.530Z,20.85
2022-09-18T09:59:13.518Z,20.85
2022-09-18T10:00:13.539Z,20.85
2022-09-18T10:01:13.568Z,20.85
2022-09-18T10:02:13.532Z,20.85
2022-09-18T10:03:13.474Z,20.85
2022-09-18T10:04:13.464Z,20.85
2022-09-18T10:05:13.485Z,20.85
2022-09-18T10:06:13.441Z,20.85
2022-09-18T10:07:13.431Z,20.85
2022-09-18T10:08:13.426Z,20.85
2022-09-18T10:09:13.409Z,20.85
2022-09-18T10:10:13.432Z,20.84
2022-09-18T10:11:13.511Z,20.85
2022-09-18T10:12:13.407Z,20.85
2022-09-18T10:13:13.365Z,20.85
2022-09-18T10:14:13.354Z,20.85
2022-09-18T10:15:13.342Z,20.85
2022-09-18T10:16:13.374Z,20.84
2022-09-18T10:17:13.356Z,20.85
2022-09-18T10:18:16.247Z,20.84
2022-09-18T10:19:13.298Z,20.85
2022-09-18T10:20:13.295Z,20.84
2022-09-18T10:21:13.280Z,20.84
2022-09-18T10:22:13.302Z,20.85
2022-09-18T10:23:13.264Z,20.85
2022-09-18T10:24:13.249Z,20.84
2022-09-18T10:25:13.235Z,20.85
2022-09-18T10:26:13.232Z,20.85
2022-09-18T10:27:13.360Z,20.85
2022-09-18T10:28:13.205Z,20.84
2022-09-18T10:29:13.190Z,20.84
2022-09-18T10:30:13.184Z,20.85
2022-09-18T10:31:13.244Z,20.85
2022-09-18T10:32:13.187Z,20.84
2022-09-18T10:33:13.145Z,20.85
2022-09-18T10:34:13.136Z,20.85
2022-09-18T10:35:13.125Z,20.85
2022-09-18T10:36:13.115Z,20.84
2022-09-18T10:37:13.154Z,20.84
2022-09-18T10:38:13.096Z,20.85
2022-09-18T10:39:13.081Z,20.85
2022-09-18T10:40:13.130Z,20.84
2022-09-18T10:41:13.058Z,20.85
2022-09-18T10:42:13.051Z,20.84
2022-09-18T10:43:13.216Z,20.85
2022-09-18T10:44:13.031Z,20.87
2022-09-18T10:45:13.017Z,20.87
2022-09-18T10:46:13.066Z,20.87
2022-09-18T10:47:12.994Z,20.88
2022-09-18T10:48:13.011Z,20.88
2022-09-18T10:49:12.972Z,20.88
2022-09-18T10:50:13.028Z,20.89
2022-09-18T10:51:12.950Z,20.89
2022-09-18T10:52:12.941Z,20.91
2022-09-18T10:53:12.960Z,20.92
2022-09-18T10:54:12.946Z,20.92
2022-09-18T10:55:12.906Z,20.92
2022-09-18T10:56:12.896Z,20.95
2022-09-18T10:57:12.885Z,20.97
2022-09-18T10:58:12.874Z,20.98
2022-09-18T10:59:13.015Z,20.98
2022-09-18T11:00:12.852Z,20.98
2022-09-18T11:01:12.897Z,20.99
2022-09-18T11:02:12.873Z,20.99
2022-09-18T11:03:12.820Z,20.99
2022-09-18T11:04:12.840Z,21.03
2022-09-18T11:05:12.799Z,21.03
2022-09-18T11:06:12.788Z,21.03
2022-09-18T11:07:12.775Z,21.04
2022-09-18T11:08:12.767Z,21.04
2022-09-18T11:09:12.788Z,21.06
2022-09-18T11:10:12.746Z,21.06
2022-09-18T11:11:12.732Z,21.07
2022-09-18T11:12:12.732Z,21.07
2022-09-18T11:13:12.711Z,21.07
2022-09-18T11:14:12.758Z,21.07
2022-09-18T11:15:12.810Z,21.06
2022-09-18T11:16:12.726Z,21.06
2022-09-18T11:17:12.668Z,21.06
2022-09-18T11:18:12.657Z,21.04
2022-09-18T11:19:12.650Z,21.04
2022-09-18T11:20:12.667Z,21.03
2022-09-18T11:21:12.631Z,21.03
2022-09-18T11:22:12.615Z,21.01
2022-09-18T11:23:12.602Z,21.01
2022-09-18T11:24:12.593Z,20.99
2022-09-18T11:25:12.611Z,20.99
2022-09-18T11:26:12.573Z,20.98
2022-09-18T11:27:12.562Z,20.97
2022-09-18T11:28:12.552Z,20.97
2022-09-18T11:29:12.540Z,20.97
2022-09-18T11:30:12.557Z,20.95
2022-09-18T11:31:12.721Z,20.95
2022-09-18T11:32:12.509Z,20.95
2022-09-18T11:33:12.495Z,20.95
2022-09-18T11:34:12.487Z,20.95
2022-09-18T11:35:12.475Z,20.95
2022-09-18T11:36:12.494Z,20.95
2022-09-18T11:37:12.453Z,20.94
2022-09-18T11:38:12.443Z,20.94
2022-09-18T11:39:12.431Z,20.94
2022-09-18T11:40:12.471Z,20.92
2022-09-18T11:41:12.436Z,20.92
2022-09-18T11:42:12.401Z,20.94
2022-09-18T11:43:12.390Z,20.92
2022-09-18T11:44:12.378Z,20.94
2022-09-18T11:45:12.367Z,20.92
2022-09-18T11:46:12.481Z,20.92
2022-09-18T11:47:12.466Z,20.92
2022-09-18T11:48:12.334Z,20.91
2022-09-18T11:49:12.323Z,20.89
2022-09-18T11:50:12.317Z,20.91
2022-09-18T11:51:12.303Z,20.91
2022-09-18T11:52:12.322Z,20.92
2022-09-18T11:53:12.279Z,20.89
2022-09-18T11:54:12.271Z,20.91
2022-09-18T11:55:12.257Z,20.91
2022-09-18T11:56:12.256Z,20.91
2022-09-18T11:57:12.287Z,20.89
2022-09-18T11:58:12.228Z,20.89
2022-09-18T11:59:12.217Z,20.91
2022-09-18T12:00:12.205Z,20.89
2022-09-18T12:01:12.194Z,20.92
2022-09-18T12:02:12.275Z,20.91
2022-09-18T12:03:12.388Z,20.89
2022-09-18T12:04:12.161Z,20.91
2022-09-18T12:05:12.149Z,20.89
2022-09-18T12:06:12.140Z,20.89
2022-09-18T12:07:12.128Z,20.91
2022-09-18T12:08:10.793Z,20.91
2022-09-18T12:09:10.753Z,20.89
2022-09-18T12:10:10.738Z,20.91
2022-09-18T12:11:10.725Z,20.91
2022-09-18T12:12:10.720Z,20.89
2022-09-18T12:13:10.752Z,20.89
2022-09-18T12:14:10.693Z,20.91
2022-09-18T12:15:10.684Z,20.91
2022-09-18T12:16:10.706Z,20.89
2022-09-18T12:17:10.655Z,20.89
2022-09-18T12:18:10.646Z,20.89
2022-09-18T12:19:10.785Z,20.89
2022-09-18T12:20:10.622Z,20.91
2022-09-18T12:21:10.609Z,20.89
2022-09-18T12:22:10.598Z,20.89
2022-09-18T12:23:10.586Z,20.89
2022-09-18T12:24:10.623Z,20.89
2022-09-18T12:25:10.565Z,20.88
2022-09-18T12:26:10.551Z,20.88
2022-09-18T12:27:10.543Z,20.89
2022-09-18T12:28:10.531Z,20.89
2022-09-18T12:29:10.517Z,20.89
2022-09-18T12:30:10.533Z,20.89
2022-09-18T12:31:10.593Z,20.89
2022-09-18T12:32:10.483Z,20.88
2022-09-18T12:33:12.549Z,20.88
2022-09-18T12:34:10.458Z,20.88
2022-09-18T12:35:10.595Z,20.88
2022-09-18T12:36:10.434Z,20.88
2022-09-18T12:37:10.427Z,20.89
2022-09-18T12:38:10.414Z,20.89
2022-09-18T12:39:13.036Z,20.89
2022-09-18T12:40:11.130Z,20.88
2022-09-18T12:41:11.080Z,20.89
2022-09-18T12:42:11.039Z,20.88
2022-09-18T12:43:11.029Z,20.88
2022-09-18T12:44:11.015Z,20.88
2022-09-18T12:45:11.005Z,20.88
2022-09-18T12:46:11.076Z,20.88
2022-09-18T12:47:10.983Z,20.88
2022-09-18T12:48:10.967Z,20.88
2022-09-18T12:49:10.959Z,20.89
2022-09-18T12:50:10.951Z,20.89
2022-09-18T12:51:11.061Z,20.88
2022-09-18T12:52:10.949Z,20.89